createdAt,value
2022-08-16T00:00:39.365Z,25
2022-08-16T00:03:14.867Z,25
2022-08-16T00:05:57.964Z,24
2022-08-16T00:08:37.630Z,24
2022-08-16T00:11:16.922Z,24
2022-08-16T00:13:55.534Z,24
2022-08-16T00:17:15.785Z,20
2022-08-16T00:19:55.128Z,19
2022-08-16T00:22:28.197Z,23
2022-08-16T00:25:00.276Z,28
2022-08-16T00:27:32.944Z,25
2022-08-16T00:30:28.616Z,21
2022-08-16T00:32:58.359Z,24
2022-08-16T00:35:35.169Z,18
2022-08-16T00:38:43.409Z,17
2022-08-16T00:41:17.544Z,20
2022-08-16T00:43:54.145Z,16
2022-08-16T00:46:35.657Z,24
2022-08-16T00:49:22.146Z,16
2022-08-16T00:51:55.947Z,16
2022-08-16T00:54:28.480Z,20
2022-08-16T00:57:01.381Z,19
2022-08-16T00:59:35.070Z,20
2022-08-16T01:02:32.688Z,15
2022-08-16T01:05:12.116Z,15
2022-08-16T01:07:53.707Z,16
2022-08-16T01:10:33.684Z,18
2022-08-16T01:13:15.949Z,16
2022-08-16T01:15:53.871Z,20
2022-08-16T01:18:41.600Z,16
2022-08-16T01:21:14.373Z,16
2022-08-16T01:24:02.327Z,16
2022-08-16T01:26:35.715Z,16
2022-08-16T01:29:10.322Z,12
2022-08-16T01:31:43.618Z,13
2022-08-16T01:34:26.764Z,17
2022-08-16T01:36:58.604Z,20
2022-08-16T01:39:35.838Z,17
2022-08-16T01:42:13.556Z,21
2022-08-16T01:44:55.637Z,16
2022-08-16T01:47:29.975Z,16
2022-08-16T01:51:07.932Z,19
2022-08-16T01:53:56.225Z,17
2022-08-16T01:56:28.778Z,17
2022-08-16T01:59:01.793Z,16
2022-08-16T02:01:36.182Z,17
2022-08-16T02:04:11.690Z,16
2022-08-16T02:07:25.657Z,20
2022-08-16T02:10:02.520Z,13
2022-08-16T02:12:55.734Z,16
2022-08-16T02:15:44.053Z,16
2022-08-16T02:18:18.948Z,16
2022-08-16T02:20:54.056Z,16
2022-08-16T02:23:29.822Z,16
2022-08-16T02:26:02.434Z,12
2022-08-16T02:28:35.620Z,12
2022-08-16T02:31:09.110Z,16
2022-08-16T02:33:50.277Z,17
2022-08-16T02:36:49.753Z,14
2022-08-16T02:39:23.188Z,15
2022-08-16T02:42:00.886Z,16
2022-08-16T02:44:36.186Z,12
2022-08-16T02:47:25.826Z,12
2022-08-16T02:51:03.284Z,16
2022-08-16T02:53:43.911Z,16
2022-08-16T02:56:16.229Z,17
2022-08-16T02:58:48.188Z,16
2022-08-16T03:01:36.938Z,19
2022-08-16T03:04:51.271Z,16
2022-08-16T03:07:28.098Z,15
2022-08-16T03:10:07.972Z,16
2022-08-16T03:12:56.900Z,16
2022-08-16T03:15:28.949Z,18
2022-08-16T03:18:02.744Z,15
2022-08-16T03:21:19.051Z,16
2022-08-16T03:23:54.122Z,16
2022-08-16T03:26:27.159Z,12
2022-08-16T03:29:00.480Z,16
2022-08-16T03:31:41.185Z,20
2022-08-16T03:34:13.425Z,17
2022-08-16T03:36:47.658Z,20
2022-08-16T03:39:25.391Z,18
2022-08-16T03:42:02.836Z,20
2022-08-16T03:44:49.290Z,16
2022-08-16T03:47:21.229Z,16
2022-08-16T03:49:55.413Z,16
2022-08-16T03:52:44.025Z,16
2022-08-16T03:55:16.445Z,16
2022-08-16T03:57:54.039Z,17
2022-08-16T04:00:41.519Z,12
2022-08-16T04:03:12.688Z,16
2022-08-16T04:05:54.399Z,16
2022-08-16T04:08:27.382Z,19
2022-08-16T04:10:59.499Z,16
2022-08-16T04:14:30.958Z,17
2022-08-16T04:17:06.557Z,16
2022-08-16T04:19:46.501Z,17
2022-08-16T04:22:29.968Z,16
2022-08-16T04:25:03.820Z,18
2022-08-16T04:27:38.161Z,16
2022-08-16T04:30:35.744Z,20
2022-08-16T04:33:11.068Z,20
2022-08-16T04:35:49.816Z,20
2022-08-16T04:38:21.967Z,20
2022-08-16T04:40:54.608Z,20
2022-08-16T04:43:29.561Z,16
2022-08-16T04:46:03.586Z,16
2022-08-16T04:49:46.286Z,20
2022-08-16T04:52:44.429Z,16
2022-08-16T04:55:17.055Z,24
2022-08-16T04:57:53.989Z,21
2022-08-16T05:00:33.700Z,24
2022-08-16T05:03:08.551Z,23
2022-08-16T05:05:59.635Z,20
2022-08-16T05:08:48.783Z,24
2022-08-16T05:11:32.340Z,24
2022-08-16T05:14:07.467Z,23
2022-08-16T05:16:41.151Z,20
2022-08-16T05:19:16.807Z,17
2022-08-16T05:21:51.745Z,20
2022-08-16T05:24:26.458Z,19
2022-08-16T05:27:12.070Z,20
2022-08-16T05:30:03.845Z,21
2022-08-16T05:33:16.207Z,21
2022-08-16T05:35:56.025Z,21
2022-08-16T05:38:36.525Z,17
2022-08-16T05:41:14.161Z,16
2022-08-16T05:43:49.639Z,19
2022-08-16T05:46:31.534Z,16
2022-08-16T05:49:09.463Z,17
2022-08-16T05:51:46.079Z,16
2022-08-16T05:54:26.111Z,15
2022-08-16T05:57:00.257Z,12
2022-08-16T05:59:36.950Z,15
2022-08-16T06:02:08.768Z,18
2022-08-16T06:04:45.730Z,15
2022-08-16T06:07:26.473Z,16
2022-08-16T06:10:03.165Z,16
2022-08-16T06:12:36.931Z,12
2022-08-16T06:15:10.474Z,16
2022-08-16T06:17:45.379Z,16
2022-08-16T06:20:23.347Z,16
2022-08-16T06:23:32.599Z,12
2022-08-16T06:26:08.108Z,16
2022-08-16T06:28:41.341Z,19
2022-08-16T06:31:17.149Z,12
2022-08-16T06:33:57.321Z,16
2022-08-16T06:36:32.584Z,16
2022-08-16T06:39:06.401Z,16
2022-08-16T06:41:48.590Z,16
2022-08-16T06:44:24.677Z,15
2022-08-16T06:47:03.089Z,19
2022-08-16T06:49:34.144Z,14
2022-08-16T06:53:00.165Z,12
2022-08-16T06:55:54.036Z,21
2022-08-16T06:58:32.187Z,25
2022-08-16T07:01:15.868Z,30
2022-08-16T07:04:36.953Z,21
2022-08-16T07:07:10.212Z,16
2022-08-16T07:09:46.125Z,20
2022-08-16T07:12:45.835Z,16
2022-08-16T07:16:55.353Z,28
2022-08-16T07:20:30.494Z,16
2022-08-16T07:23:18.676Z,12
2022-08-16T07:25:52.688Z,20
2022-08-16T07:28:26.392Z,12
2022-08-16T07:30:59.445Z,16
2022-08-16T07:33:54.802Z,16
2022-08-16T07:36:29.140Z,16
2022-08-16T07:39:04.143Z,15
2022-08-16T07:41:38.964Z,12
2022-08-16T07:44:17.105Z,18
2022-08-16T07:46:56.586Z,25
2022-08-16T07:49:32.781Z,16
2022-08-16T07:52:20.874Z,20
2022-08-16T07:54:53.715Z,20
2022-08-16T07:57:26.489Z,19
2022-08-16T07:59:59.975Z,16
2022-08-16T08:02:34.614Z,16
2022-08-16T08:05:07.638Z,16
2022-08-16T08:07:45.809Z,15
2022-08-16T08:10:29.965Z,16
2022-08-16T08:13:03.964Z,13
2022-08-16T08:15:53.430Z,17
2022-08-16T08:18:31.165Z,19
2022-08-16T08:21:01.871Z,25
2022-08-16T08:23:34.256Z,14
2022-08-16T08:26:18.258Z,15
2022-08-16T08:28:50.253Z,19
2022-08-16T08:31:23.119Z,12
2022-08-16T08:33:56.726Z,12
2022-08-16T08:36:33.764Z,14
2022-08-16T08:39:13.586Z,13
2022-08-16T08:41:50.455Z,14
2022-08-16T08:44:31.252Z,16
2022-08-16T08:47:12.139Z,12
2022-08-16T08:49:56.028Z,15
2022-08-16T08:52:37.831Z,22
2022-08-16T08:55:22.911Z,22
2022-08-16T08:57:55.537Z,12
2022-08-16T09:00:30.393Z,16
2022-08-16T09:03:21.620Z,12
2022-08-16T09:05:54.965Z,16
2022-08-16T09:08:27.726Z,12
2022-08-16T09:11:03.601Z,12
2022-08-16T09:13:48.448Z,12
2022-08-16T09:17:11.518Z,12
2022-08-16T09:20:25.910Z,16
2022-08-16T09:22:57.908Z,12
2022-08-16T09:25:35.195Z,12
2022-08-16T09:28:10.111Z,12
2022-08-16T09:30:45.139Z,12
2022-08-16T09:33:20.550Z,12
2022-08-16T09:35:55.255Z,16
2022-08-16T09:38:33.220Z,16
2022-08-16T09:41:05.630Z,12
2022-08-16T09:44:02.581Z,13
2022-08-16T09:47:58.570Z,12
2022-08-16T09:50:39.701Z,11
2022-08-16T09:53:21.164Z,12
2022-08-16T09:55:57.088Z,12
2022-08-16T09:59:05.943Z,8
2022-08-16T10:01:45.976Z,12
2022-08-16T10:04:37.226Z,11
2022-08-16T10:07:26.340Z,12
2022-08-16T10:10:30.698Z,12
2022-08-16T10:13:03.974Z,12
2022-08-16T10:15:37.660Z,11
2022-08-16T10:19:06.868Z,12
2022-08-16T10:21:38.419Z,12
2022-08-16T10:24:28.951Z,8
2022-08-16T10:27:30.159Z,8
2022-08-16T10:31:16.993Z,11
2022-08-16T10:34:32.885Z,12
2022-08-16T10:37:03.768Z,10
2022-08-16T10:39:42.640Z,12
2022-08-16T10:42:20.647Z,12
2022-08-16T10:44:55.272Z,16
2022-08-16T10:47:36.161Z,13
2022-08-16T10:50:20.502Z,16
2022-08-16T10:52:58.997Z,12
2022-08-16T10:55:46.072Z,14
2022-08-16T10:58:35.225Z,16
2022-08-16T11:01:40.334Z,12
2022-08-16T11:05:59.900Z,12
2022-08-16T11:08:45.897Z,16
2022-08-16T11:11:20.181Z,12
2022-08-16T11:14:11.558Z,11
2022-08-16T11:17:11.495Z,16
2022-08-16T11:23:20.507Z,12
2022-08-16T11:26:24.595Z,12
2022-08-16T11:29:25.268Z,13
2022-08-16T11:31:57.449Z,12
2022-08-16T11:35:11.379Z,12
2022-08-16T11:38:57.926Z,15
2022-08-16T11:41:32.632Z,12
2022-08-16T11:44:06.240Z,12
2022-08-16T11:46:46.685Z,12
2022-08-16T11:49:18.803Z,12
2022-08-16T11:51:50.868Z,12
2022-08-16T11:54:36.650Z,10
2022-08-16T11:57:09.991Z,12
2022-08-16T11:59:42.114Z,12
2022-08-16T12:02:33.202Z,9
2022-08-16T12:05:05.783Z,12
2022-08-16T12:07:39.340Z,12
2022-08-16T12:10:12.302Z,12
2022-08-16T12:12:46.970Z,12
2022-08-16T12:15:22.694Z,8
2022-08-16T12:17:57.115Z,10
2022-08-16T12:20:32.968Z,8
2022-08-16T12:23:06.273Z,8
2022-08-16T12:25:39.692Z,12
2022-08-16T12:28:12.748Z,12
2022-08-16T12:30:45.932Z,8
2022-08-16T12:33:27.461Z,12
2022-08-16T12:35:59.951Z,12
2022-08-16T12:38:50.064Z,12
2022-08-16T12:41:25.839Z,10
2022-08-16T12:44:01.692Z,8
2022-08-16T12:49:22.722Z,12
2022-08-16T12:52:01.220Z,9
2022-08-16T12:54:37.338Z,9
2022-08-16T12:57:14.460Z,12
2022-08-16T12:59:54.296Z,12
2022-08-16T13:02:36.481Z,8
2022-08-16T13:05:08.725Z,12
2022-08-16T13:07:53.030Z,11
2022-08-16T13:10:39.153Z,8
2022-08-16T13:13:11.698Z,13
2022-08-16T13:16:00.795Z,8
2022-08-16T13:18:57.298Z,15
2022-08-16T13:21:30.267Z,20
2022-08-16T13:24:05.941Z,8
2022-08-16T13:26:40.806Z,12
2022-08-16T13:29:14.978Z,12
2022-08-16T13:31:48.986Z,12
2022-08-16T13:34:22.191Z,12
2022-08-16T13:36:56.062Z,8
2022-08-16T13:39:32.255Z,12
2022-08-16T13:42:04.365Z,12
2022-08-16T13:44:58.635Z,8
2022-08-16T13:47:30.643Z,12
2022-08-16T13:50:02.704Z,8
2022-08-16T13:52:45.031Z,8
2022-08-16T13:55:20.142Z,8
2022-08-16T13:58:50.399Z,8
2022-08-16T14:01:30.536Z,9
2022-08-16T14:04:11.930Z,14
2022-08-16T14:06:57.599Z,8
2022-08-16T14:09:30.231Z,11
2022-08-16T14:12:17.840Z,11
2022-08-16T14:14:56.039Z,12
2022-08-16T14:17:28.768Z,10
2022-08-16T14:20:51.446Z,8
2022-08-16T14:23:24.668Z,12
2022-08-16T14:25:59.352Z,12
2022-08-16T14:28:34.297Z,8
2022-08-16T14:31:08.416Z,8
2022-08-16T14:33:41.491Z,9
2022-08-16T14:36:29.687Z,12
2022-08-16T14:39:01.360Z,8
2022-08-16T14:41:34.288Z,8
2022-08-16T14:44:11.557Z,12
2022-08-16T14:46:45.068Z,12
2022-08-16T14:49:19.696Z,8
2022-08-16T14:51:53.302Z,12
2022-08-16T14:54:30.855Z,9
2022-08-16T14:57:04.184Z,12
2022-08-16T14:59:45.488Z,9
2022-08-16T15:02:35.246Z,8
2022-08-16T15:05:09.501Z,12
2022-08-16T15:07:44.174Z,9
2022-08-16T15:10:26.678Z,12
2022-08-16T15:13:03.994Z,12
2022-08-16T15:15:41.191Z,12
2022-08-16T15:18:23.690Z,12
2022-08-16T15:21:03.497Z,13
2022-08-16T15:23:41.538Z,8
2022-08-16T15:26:46.980Z,12
2022-08-16T15:29:19.853Z,9
2022-08-16T15:32:01.477Z,12
2022-08-16T15:34:38.237Z,16
2022-08-16T15:37:12.190Z,12
2022-08-16T15:39:53.992Z,12
2022-08-16T15:42:29.171Z,10
2022-08-16T15:45:02.429Z,12
2022-08-16T15:47:56.886Z,15
2022-08-16T15:50:27.858Z,12
2022-08-16T15:53:01.981Z,16
2022-08-16T15:55:35.862Z,15
2022-08-16T15:58:38.206Z,16
2022-08-16T16:01:09.629Z,17
2022-08-16T16:03:42.188Z,28
2022-08-16T16:06:28.897Z,16
2022-08-16T16:09:07.432Z,12
2022-08-16T16:11:42.602Z,12
2022-08-16T16:14:15.008Z,12
2022-08-16T16:16:54.325Z,14
2022-08-16T16:19:28.677Z,12
2022-08-16T16:22:02.205Z,13
2022-08-16T16:24:36.431Z,16
2022-08-16T16:27:10.500Z,28
2022-08-16T16:29:57.878Z,16
2022-08-16T16:33:22.222Z,20
2022-08-16T16:35:57.280Z,13
2022-08-16T16:38:29.448Z,12
2022-08-16T16:41:01.945Z,12
2022-08-16T16:43:35.803Z,16
2022-08-16T16:46:43.912Z,12
2022-08-16T16:49:26.795Z,16
2022-08-16T16:52:07.707Z,16
2022-08-16T16:54:46.937Z,12
2022-08-16T16:57:26.548Z,8
2022-08-16T17:00:25.859Z,12
2022-08-16T17:03:28.570Z,12
2022-08-16T17:06:10.627Z,12
2022-08-16T17:08:41.958Z,11
2022-08-16T17:11:23.025Z,11
2022-08-16T17:14:00.122Z,12
2022-08-16T17:16:33.868Z,12
2022-08-16T17:19:19.521Z,19
2022-08-16T17:22:05.238Z,16
2022-08-16T17:24:52.835Z,12
2022-08-16T17:27:34.295Z,16
2022-08-16T17:30:16.885Z,13
2022-08-16T17:32:54.921Z,12
2022-08-16T17:35:34.645Z,73
2022-08-16T17:38:06.556Z,41
2022-08-16T17:40:58.897Z,16
2022-08-16T17:43:32.166Z,19
2022-08-16T17:46:52.628Z,16
2022-08-16T17:49:23.577Z,16
2022-08-16T17:51:56.142Z,16
2022-08-16T17:54:31.174Z,18
2022-08-16T17:57:03.569Z,16
2022-08-16T17:59:41.705Z,20
2022-08-16T18:02:44.882Z,14
2022-08-16T18:05:16.207Z,16
2022-08-16T18:07:48.984Z,16
2022-08-16T18:10:36.593Z,20
2022-08-16T18:13:09.689Z,20
2022-08-16T18:15:41.731Z,16
2022-08-16T18:18:14.321Z,16
2022-08-16T18:20:46.830Z,15
2022-08-16T18:23:22.045Z,12
2022-08-16T18:25:55.749Z,13
2022-08-16T18:28:29.560Z,16
2022-08-16T18:31:05.928Z,12
2022-08-16T18:33:44.133Z,12
2022-08-16T18:36:21.658Z,12
2022-08-16T18:38:53.129Z,16
2022-08-16T18:41:25.918Z,12
2022-08-16T18:44:31.135Z,14
2022-08-16T18:47:07.219Z,12
2022-08-16T18:49:40.911Z,12
2022-08-16T18:52:26.008Z,15
2022-08-16T18:55:15.062Z,15
2022-08-16T18:57:49.715Z,14
2022-08-16T19:00:23.402Z,14
2022-08-16T19:02:59.508Z,16
2022-08-16T19:05:30.938Z,16
2022-08-16T19:08:04.293Z,17
2022-08-16T19:10:37.496Z,16
2022-08-16T19:13:10.542Z,20
2022-08-16T19:15:43.840Z,16
2022-08-16T19:18:17.140Z,20
2022-08-16T19:20:50.122Z,31
2022-08-16T19:23:23.334Z,24
2022-08-16T19:25:57.245Z,35
2022-08-16T19:28:58.226Z,24
2022-08-16T19:31:39.482Z,44
2022-08-16T19:34:12.717Z,28
2022-08-16T19:36:45.480Z,24
2022-08-16T19:39:21.693Z,20
2022-08-16T19:41:55.328Z,28
2022-08-16T19:44:28.657Z,24
2022-08-16T19:47:01.425Z,27
2022-08-16T19:49:34.713Z,31
2022-08-16T19:52:07.291Z,28
2022-08-16T19:54:41.572Z,29
2022-08-16T19:57:14.573Z,26
2022-08-16T19:59:47.437Z,28
2022-08-16T20:02:36.859Z,24
2022-08-16T20:05:07.593Z,30
2022-08-16T20:07:40.871Z,28
2022-08-16T20:10:14.480Z,31
2022-08-16T20:13:03.210Z,32
2022-08-16T20:15:41.260Z,32
2022-08-16T20:18:25.863Z,28
2022-08-16T20:20:57.353Z,24
2022-08-16T20:23:30.249Z,20
2022-08-16T20:26:03.316Z,20
2022-08-16T20:28:55.283Z,25
2022-08-16T20:31:26.530Z,24
2022-08-16T20:33:59.162Z,25
2022-08-16T20:36:32.470Z,30
2022-08-16T20:39:05.846Z,27
2022-08-16T20:41:39.161Z,27
2022-08-16T20:44:12.200Z,32
2022-08-16T20:46:45.607Z,36
2022-08-16T20:49:18.341Z,28
2022-08-16T20:51:59.640Z,28
2022-08-16T20:54:30.929Z,28
2022-08-16T20:57:06.298Z,28
2022-08-16T20:59:39.144Z,27
2022-08-16T21:02:09.765Z,24
2022-08-16T21:04:43.242Z,32
2022-08-16T21:07:20.283Z,30
2022-08-16T21:09:52.950Z,20
2022-08-16T21:12:34.783Z,24
2022-08-16T21:15:13.322Z,27
2022-08-16T21:17:46.410Z,24
2022-08-16T21:20:19.396Z,30
2022-08-16T21:22:55.542Z,17
2022-08-16T21:25:27.656Z,28
2022-08-16T21:28:44.162Z,16
2022-08-16T21:31:15.537Z,28
2022-08-16T21:33:55.961Z,20
2022-08-16T21:36:36.783Z,24
2022-08-16T21:39:10.628Z,24
2022-08-16T21:41:41.861Z,24
2022-08-16T21:44:13.974Z,30
2022-08-16T21:46:51.675Z,20
2022-08-16T21:49:24.410Z,25
2022-08-16T21:51:57.502Z,24
2022-08-16T21:54:30.523Z,26
2022-08-16T21:57:10.818Z,32
2022-08-16T21:59:46.170Z,28
2022-08-16T22:02:21.661Z,32
2022-08-16T22:04:55.868Z,24
2022-08-16T22:07:29.539Z,35
2022-08-16T22:11:08.934Z,24
2022-08-16T22:13:40.782Z,23
2022-08-16T22:16:32.446Z,25
2022-08-16T22:19:05.722Z,20
2022-08-16T22:21:39.314Z,23
2022-08-16T22:24:14.298Z,23
2022-08-16T22:26:56.003Z,28
2022-08-16T22:29:28.870Z,24
2022-08-16T22:32:02.354Z,23
2022-08-16T22:34:34.634Z,20
2022-08-16T22:37:08.188Z,25
2022-08-16T22:39:41.242Z,24
2022-08-16T22:42:14.440Z,22
2022-08-16T22:44:46.839Z,17
2022-08-16T22:47:22.172Z,20
2022-08-16T22:49:57.380Z,24
2022-08-16T22:52:57.276Z,25
2022-08-16T22:55:29.264Z,20
2022-08-16T22:58:01.660Z,20
2022-08-16T23:00:34.155Z,20
2022-08-16T23:03:09.018Z,27
2022-08-16T23:05:42.310Z,24
2022-08-16T23:08:38.869Z,23
2022-08-16T23:11:10.910Z,26
2022-08-16T23:13:54.158Z,36
2022-08-16T23:16:34.784Z,29
2022-08-16T23:19:06.081Z,24
2022-08-16T23:21:39.082Z,20
2022-08-16T23:24:12.429Z,26
2022-08-16T23:26:49.865Z,20
2022-08-16T23:29:26.658Z,20
2022-08-16T23:31:59.012Z,20
2022-08-16T23:34:32.265Z,24
2022-08-16T23:37:05.807Z,24
2022-08-16T23:39:39.017Z,20
2022-08-16T23:42:15.194Z,20
2022-08-16T23:45:24.619Z,20
2022-08-16T23:47:57.954Z,20
2022-08-16T23:50:30.569Z,17
2022-08-16T23:53:04.152Z,20
2022-08-16T23:55:37.630Z,16
2022-08-16T23:58:10.401Z,19
